Time;durP1;ratioP1;P1;durP2;ratioP2;P2;SDS_P1;SDS_P2;PMS_P1;PMS_P2;Temp;Humidity;BMP_temperature;BMP_pressure;BME280_temperature;BME280_humidity;BME280_pressure;Samples;Min_cycle;Max_cycle;Signal;HPM_P1;HPM_P2
2022/01/12 00:00:20;;;;;;;14.30;3.57;;;-6.90;99.90;;;;;;2206105;64;20085;-43
2022/01/12 00:02:46;;;;;;;18.50;5.63;;;-6.90;99.90;;;;;;2212207;64;20156;-42
2022/01/12 00:05:14;;;;;;;12.63;4.87;;;-6.90;99.90;;;;;;2206238;64;20104;-42
2022/01/12 00:07:41;;;;;;;32.77;6.63;;;-6.90;99.90;;;;;;2212535;64;20279;-42
2022/01/12 00:10:09;;;;;;;14.27;5.17;;;-6.90;99.90;;;;;;2212363;64;20572;-41
2022/01/12 00:12:35;;;;;;;20.13;6.67;;;-7.00;99.90;;;;;;2215576;64;20097;-42
2022/01/12 00:15:02;;;;;;;20.77;6.53;;;-7.00;99.90;;;;;;2212286;64;20069;-43
2022/01/12 00:17:29;;;;;;;21.80;5.93;;;-7.00;99.90;;;;;;2209282;64;20119;-42
2022/01/12 00:19:56;;;;;;;16.13;5.53;;;-7.00;99.90;;;;;;2212198;64;20089;-41
2022/01/12 00:22:23;;;;;;;13.03;4.63;;;-7.00;99.90;;;;;;2212287;64;20648;-42
2022/01/12 00:33:09;;;;;;;21.47;4.70;;;-7.00;99.90;;;;;;2217787;64;20107;-43
2022/01/12 00:35:40;;;;;;;10.63;4.20;;;-7.00;99.90;;;;;;2217960;64;20135;-42
2022/01/12 00:38:08;;;;;;;12.80;3.83;;;-7.10;99.90;;;;;;2217717;64;20110;-42
2022/01/12 00:40:39;;;;;;;12.00;4.23;;;-7.00;99.90;;;;;;2217850;64;20092;-42
2022/01/12 00:43:06;;;;;;;12.20;4.43;;;-7.10;99.90;;;;;;2217921;64;20560;-42
2022/01/12 00:45:34;;;;;;;14.10;4.23;;;-7.00;99.90;;;;;;2217772;64;20084;-42
2022/01/12 00:48:04;;;;;;;10.37;3.27;;;-7.10;99.90;;;;;;2217751;64;20475;-42
2022/01/12 00:50:31;;;;;;;8.50;3.53;;;-7.10;99.90;;;;;;2217717;64;20104;-42
2022/01/12 00:52:58;;;;;;;10.63;3.10;;;-7.10;99.90;;;;;;2217895;64;20096;-42
2022/01/12 00:55:25;;;;;;;11.87;5.07;;;-7.10;99.90;;;;;;2217567;64;20131;-42
2022/01/12 00:57:51;;;;;;;8.37;3.13;;;-7.10;99.90;;;;;;2217510;64;20115;-41
2022/01/12 01:00:21;;;;;;;13.40;2.67;;;-7.10;99.90;;;;;;2217993;64;20568;-42
2022/01/12 01:02:48;;;;;;;12.40;4.10;;;-7.10;99.90;;;;;;2217834;64;20077;-41
2022/01/12 01:05:19;;;;;;;7.57;1.87;;;-7.10;99.90;;;;;;2214588;64;20092;-41
2022/01/12 01:07:46;;;;;;;3.87;0.90;;;-7.10;99.90;;;;;;2217907;64;20100;-41
2022/01/12 01:10:18;;;;;;;6.57;3.23;;;-7.10;99.90;;;;;;2217819;64;20099;-41
2022/01/12 01:12:46;;;;;;;8.10;2.40;;;-7.10;99.90;;;;;;2217782;64;20567;-41
2022/01/12 01:15:18;;;;;;;5.93;1.23;;;-7.10;99.90;;;;;;2217623;64;20080;-41
2022/01/12 01:26:02;;;;;;;1.80;1.33;;;-7.00;99.90;;;;;;2215223;64;20564;-42
2022/01/12 01:28:32;;;;;;;1.00;0.50;;;-7.00;99.90;;;;;;2204225;64;20548;-40
2022/01/12 01:30:59;;;;;;;9.30;3.17;;;-7.00;99.90;;;;;;2201232;64;20121;-40
2022/01/12 01:33:27;;;;;;;0.23;0.23;;;-7.00;99.90;;;;;;2201200;64;20175;-41
2022/01/12 01:35:56;;;;;;;11.57;2.60;;;-7.00;99.90;;;;;;2204516;64;20093;-41
2022/01/12 01:38:23;;;;;;;10.17;3.10;;;-7.00;99.90;;;;;;2201182;64;20089;-42
2022/01/12 01:40:50;;;;;;;4.57;2.00;;;-7.00;99.90;;;;;;2200842;64;20187;-41
2022/01/12 01:54:02;;;;;;;;;;;-7.00;99.90;;;;;;2204373;64;20090;-41
2022/01/12 01:56:29;;;;;;;3.73;0.90;;;-7.00;99.90;;;;;;2201155;64;19989;-42
2022/01/12 01:58:55;;;;;;;5.93;2.27;;;-7.00;99.90;;;;;;2204065;64;20120;-40
2022/01/12 02:01:23;;;;;;;2.53;1.07;;;-7.00;99.90;;;;;;2204443;64;20102;-43
2022/01/12 02:03:50;;;;;;;7.03;1.47;;;-7.00;99.90;;;;;;2204397;64;20109;-41
2022/01/12 02:06:17;;;;;;;3.70;2.33;;;-7.00;99.90;;;;;;2206482;64;20101;-41
2022/01/12 02:08:45;;;;;;;9.13;2.50;;;-7.00;99.90;;;;;;2205053;64;20655;-41
2022/01/12 02:11:12;;;;;;;7.00;2.40;;;-7.00;99.90;;;;;;2206830;64;20088;-41
2022/01/12 02:13:39;;;;;;;2.77;0.87;;;-7.10;99.90;;;;;;2213417;64;20088;-41
2022/01/12 02:16:06;;;;;;;1.77;1.13;;;-7.00;99.90;;;;;;2213816;64;20169;-42
2022/01/12 02:19:07;;;;;;;3.43;0.70;;;-7.00;99.90;;;;;;2213475;64;20112;-41
2022/01/12 02:40:32;;;;;;;4.10;1.27;;;-7.00;99.90;;;;;;2200965;64;20082;-42
2022/01/12 02:43:15;;;;;;;6.43;0.80;;;-7.00;99.90;;;;;;2201113;64;20110;-42
2022/01/12 02:51:27;;;;;;;3.20;1.10;;;-7.00;99.90;;;;;;2200854;64;20168;-42
2022/01/12 02:53:54;;;;;;;1.53;0.93;;;-7.10;99.90;;;;;;2201139;64;20090;-42
2022/01/12 02:56:22;;;;;;;3.30;0.90;;;-7.00;99.90;;;;;;2200940;64;20094;-42
2022/01/12 02:58:50;;;;;;;2.37;0.57;;;-7.00;99.90;;;;;;2201104;64;20089;-42
2022/01/12 03:04:02;;;;;;;11.60;1.63;;;-7.00;99.90;;;;;;2201168;64;20529;-40
2022/01/12 03:06:32;;;;;;;2.93;2.03;;;-7.00;99.90;;;;;;2200829;64;20096;-42
2022/01/12 03:08:59;;;;;;;6.07;2.33;;;-7.00;99.90;;;;;;2201015;64;20491;-43
2022/01/12 03:11:27;;;;;;;0.57;0.53;;;-7.00;99.90;;;;;;2201011;64;20086;-42
2022/01/12 03:13:55;;;;;;;4.83;1.43;;;-7.00;99.90;;;;;;2201030;64;20116;-42
2022/01/12 03:16:26;;;;;;;4.67;1.90;;;-6.90;99.90;;;;;;2214653;64;20186;-42
2022/01/12 03:18:55;;;;;;;0.40;0.37;;;-7.00;99.90;;;;;;2213640;64;20173;-42
2022/01/12 03:21:27;;;;;;;5.23;1.67;;;-7.00;99.90;;;;;;2216519;64;20122;-41
2022/01/12 03:23:54;;;;;;;2.40;0.77;;;-7.00;99.90;;;;;;2213593;64;20156;-41
2022/01/12 03:26:22;;;;;;;3.47;0.70;;;-7.00;99.90;;;;;;2216251;64;20169;-43
2022/01/12 03:28:55;;;;;;;0.93;0.30;;;-6.90;99.90;;;;;;2217397;64;20088;-42
2022/01/12 03:31:28;;;;;;;3.77;1.40;;;-6.90;99.90;;;;;;2217334;64;20095;-41
2022/01/12 03:34:41;;;;;;;6.03;2.10;;;-6.90;99.90;;;;;;2217229;64;20542;-41
2022/01/12 03:37:17;;;;;;;5.80;2.33;;;-6.90;99.90;;;;;;2215914;64;20598;-42
2022/01/12 03:39:42;;;;;;;;;;;-6.90;99.90;;;;;;2217469;64;20084;-41
2022/01/12 03:42:09;;;;;;;4.80;1.40;;;-6.90;99.90;;;;;;2214178;64;19979;-42
2022/01/12 03:44:36;;;;;;;7.70;1.97;;;-6.90;99.90;;;;;;2217049;64;20096;-41
2022/01/12 03:47:03;;;;;;;3.37;1.17;;;-7.00;99.90;;;;;;2217279;64;20560;-41
2022/01/12 03:49:30;;;;;;;3.87;0.87;;;-6.90;99.90;;;;;;2217126;64;20143;-41
2022/01/12 03:51:57;;;;;;;1.10;0.23;;;-6.90;99.90;;;;;;2217295;64;20093;-42
2022/01/12 03:54:24;;;;;;;3.20;1.43;;;-6.90;99.90;;;;;;2217173;64;20099;-42
2022/01/12 03:56:50;;;;;;;2.63;1.00;;;-6.90;99.90;;;;;;2217012;64;20541;-41
2022/01/12 03:59:17;;;;;;;1.23;0.63;;;-6.90;99.90;;;;;;2217345;64;20552;-40
2022/01/12 04:01:44;;;;;;;3.50;1.03;;;-6.90;99.90;;;;;;2217271;64;20104;-42
2022/01/12 04:04:18;;;;;;;1.57;0.40;;;-6.90;99.90;;;;;;2220881;64;20080;-43
2022/01/12 04:09:30;;;;;;;;;;;-6.90;99.90;;;;;;2218079;64;20120;-41
2022/01/12 04:11:57;;;;;;;3.57;0.80;;;-6.90;99.90;;;;;;2217879;64;19976;-41
2022/01/12 04:14:24;;;;;;;1.30;0.73;;;-6.90;99.90;;;;;;2208243;64;20101;-41
2022/01/12 04:16:51;;;;;;;0.20;0.20;;;-6.90;99.90;;;;;;2202022;64;20167;-42
2022/01/12 04:19:18;;;;;;;2.67;0.93;;;-7.00;99.90;;;;;;2205061;64;20608;-44
2022/01/12 04:21:48;;;;;;;8.20;2.10;;;-6.90;99.90;;;;;;2205376;64;20093;-42
2022/01/12 04:24:15;;;;;;;1.90;0.67;;;-6.90;99.90;;;;;;2205357;64;20725;-42
2022/01/12 04:26:42;;;;;;;1.67;0.43;;;-6.90;99.90;;;;;;2201641;64;20246;-44
2022/01/12 04:29:09;;;;;;;3.53;2.03;;;-6.80;99.90;;;;;;2201584;64;20082;-43
2022/01/12 04:31:37;;;;;;;2.00;1.47;;;-6.90;99.90;;;;;;2201208;64;20184;-43
2022/01/12 04:34:04;;;;;;;6.70;2.27;;;-6.90;99.90;;;;;;2201377;64;20120;-44
2022/01/12 04:36:35;;;;;;;5.33;1.40;;;-7.00;99.90;;;;;;2198409;64;20582;-43
2022/01/12 04:39:02;;;;;;;4.60;1.73;;;-7.00;99.90;;;;;;2201304;64;20653;-43
2022/01/12 04:41:29;;;;;;;5.67;1.87;;;-7.00;99.90;;;;;;2201471;64;20533;-45
2022/01/12 04:43:56;;;;;;;4.10;1.67;;;-7.00;99.90;;;;;;2197284;65;20570;-44
2022/01/12 04:46:31;;;;;;;4.90;1.23;;;-7.00;99.90;;;;;;2194438;65;20102;-43
2022/01/12 04:51:48;;;;;;;2.10;1.97;;;-7.00;99.90;;;;;;2201199;64;20104;-43
2022/01/12 04:54:15;;;;;;;2.57;1.23;;;-7.00;99.90;;;;;;2204970;64;20105;-44
2022/01/12 04:56:42;;;;;;;0.90;0.60;;;-7.00;99.90;;;;;;2208374;64;20473;-42
2022/01/12 04:59:09;;;;;;;6.37;2.40;;;-7.00;99.90;;;;;;2205074;64;20438;-44
2022/01/12 05:01:47;;;;;;;2.60;1.17;;;-7.00;99.90;;;;;;2200324;65;20183;-43
2022/01/12 05:07:23;;;;;;;;;;;-7.00;99.90;;;;;;2201023;65;20078;-44
2022/01/12 05:12:45;;;;;;;3.37;1.40;;;-7.00;99.90;;;;;;2197453;65;20060;-44
2022/01/12 05:12:52;;;;;;;1.60;0.83;;;-7.00;99.90;;;;;;2197936;65;20428;-43
2022/01/12 05:15:37;;;;;;;2.53;1.43;;;-6.90;99.90;;;;;;2205291;64;20244;-43
2022/01/12 05:18:04;;;;;;;0.70;0.63;;;-6.90;99.90;;;;;;2196728;64;20086;-44
2022/01/12 05:20:31;;;;;;;1.77;0.60;;;-6.90;99.90;;;;;;2205313;64;20081;-42
2022/01/12 05:22:58;;;;;;;4.07;1.77;;;-6.90;99.90;;;;;;2204785;64;20600;-44
2022/01/12 05:25:25;;;;;;;7.30;1.57;;;-6.90;99.90;;;;;;2205126;64;20113;-43
2022/01/12 05:27:53;;;;;;;6.77;1.80;;;-6.90;99.90;;;;;;2205092;64;20171;-43
2022/01/12 05:30:20;;;;;;;3.20;1.80;;;-6.90;99.90;;;;;;2204934;64;20081;-43
2022/01/12 05:32:47;;;;;;;5.83;2.13;;;-6.80;99.90;;;;;;2209656;64;20077;-43
2022/01/12 05:35:17;;;;;;;10.20;2.20;;;-6.90;99.90;;;;;;2213694;64;20072;-43
2022/01/12 05:37:44;;;;;;;4.90;0.60;;;-6.80;99.90;;;;;;2213791;64;20103;-43
2022/01/12 05:40:12;;;;;;;3.40;1.07;;;-6.80;99.90;;;;;;2213804;64;20119;-42
2022/01/12 05:42:39;;;;;;;4.17;1.43;;;-6.80;99.90;;;;;;2213556;64;20556;-43
2022/01/12 05:45:07;;;;;;;4.43;1.93;;;-6.80;99.90;;;;;;2210503;64;20080;-43
2022/01/12 05:50:01;;;;;;;6.03;2.13;;;-6.80;99.90;;;;;;2213457;64;20143;-43
2022/01/12 05:52:28;;;;;;;3.63;0.87;;;-6.80;99.90;;;;;;2213603;64;20103;-43
2022/01/12 05:54:55;;;;;;;7.20;2.03;;;-6.70;99.90;;;;;;2213517;64;20157;-42
2022/01/12 05:57:22;;;;;;;0.27;0.17;;;-6.70;99.90;;;;;;2213657;64;20073;-42
2022/01/12 05:59:48;;;;;;;4.40;1.63;;;-6.60;99.90;;;;;;2213765;64;20595;-42
2022/01/12 06:02:15;;;;;;;5.33;1.83;;;-6.50;99.90;;;;;;2213707;64;20091;-42
2022/01/12 06:04:42;;;;;;;2.53;0.80;;;-6.50;99.90;;;;;;2213415;64;20106;-43
2022/01/12 06:07:09;;;;;;;1.73;0.40;;;-6.40;99.90;;;;;;2213713;64;20084;-41
2022/01/12 06:09:36;;;;;;;10.10;2.60;;;-6.40;99.90;;;;;;2213393;64;20120;-42
2022/01/12 06:12:03;;;;;;;7.73;2.03;;;-6.40;99.90;;;;;;2213767;64;20076;-42
2022/01/12 06:14:30;;;;;;;6.17;1.10;;;-6.40;99.90;;;;;;2213301;64;20085;-42
2022/01/12 06:16:57;;;;;;;2.60;0.73;;;-6.30;99.90;;;;;;2213500;64;20332;-42
2022/01/12 06:19:24;;;;;;;5.67;1.27;;;-6.30;99.90;;;;;;2213298;64;20088;-42
2022/01/12 06:21:51;;;;;;;1.10;0.80;;;-6.30;99.90;;;;;;2213586;64;20085;-41
2022/01/12 06:24:18;;;;;;;2.67;0.60;;;-6.20;99.90;;;;;;2213647;64;20092;-42
2022/01/12 06:26:46;;;;;;;7.73;2.10;;;-6.20;99.90;;;;;;2213346;64;20556;-42
2022/01/12 06:29:24;;;;;;;3.30;1.27;;;-6.10;99.90;;;;;;2210477;64;20105;-42
2022/01/12 06:31:54;;;;;;;0.70;0.50;;;-6.20;99.90;;;;;;2213343;64;20097;-42
2022/01/12 06:34:21;;;;;;;0.53;0.33;;;-6.10;99.90;;;;;;2213577;64;20096;-42
2022/01/12 06:36:48;;;;;;;4.50;1.07;;;-6.10;99.90;;;;;;2213328;64;20104;-43
2022/01/12 06:39:20;;;;;;;5.13;1.47;;;-6.10;99.90;;;;;;2201221;64;20078;-41
2022/01/12 06:41:47;;;;;;;3.23;1.10;;;-6.10;99.90;;;;;;2207898;64;20109;-42
2022/01/12 06:44:17;;;;;;;4.90;2.47;;;-6.10;99.90;;;;;;2204613;64;20208;-43
2022/01/12 06:46:44;;;;;;;3.23;1.13;;;-6.00;99.90;;;;;;2204725;64;20105;-42
2022/01/12 06:49:11;;;;;;;2.63;0.57;;;-6.00;99.90;;;;;;2204652;64;20181;-43
2022/01/12 06:51:39;;;;;;;2.63;1.13;;;-6.00;99.90;;;;;;2207946;64;20085;-42
2022/01/12 06:54:06;;;;;;;13.63;1.13;;;-6.00;99.90;;;;;;2204659;64;20111;-43
2022/01/12 06:56:33;;;;;;;3.07;1.07;;;-6.00;99.90;;;;;;2204728;64;20093;-43
2022/01/12 06:59:01;;;;;;;1.53;0.50;;;-5.90;99.90;;;;;;2208114;64;20160;-45
2022/01/12 07:01:36;;;;;;;6.77;1.40;;;-5.80;99.90;;;;;;2204627;64;20171;-41
2022/01/12 07:04:03;;;;;;;6.97;1.98;;;-5.60;99.90;;;;;;2208073;64;20469;-43
2022/01/12 07:06:29;;;;;;;3.20;1.50;;;-5.50;99.90;;;;;;2207915;64;20145;-42
2022/01/12 07:08:56;;;;;;;4.37;1.30;;;-5.50;99.90;;;;;;2204564;64;20569;-42
2022/01/12 07:11:23;;;;;;;2.63;1.00;;;-5.20;99.90;;;;;;2212811;64;20103;-41
2022/01/12 07:13:50;;;;;;;2.90;1.23;;;-5.30;99.90;;;;;;2210714;64;20596;-42
2022/01/12 07:16:17;;;;;;;1.00;0.57;;;-5.30;99.90;;;;;;2211141;64;20093;-42
2022/01/12 07:18:44;;;;;;;1.40;0.60;;;-5.30;99.90;;;;;;2211024;64;20196;-42
2022/01/12 07:21:11;;;;;;;1.17;0.57;;;-5.40;99.90;;;;;;2211287;64;20100;-43
2022/01/12 07:23:37;;;;;;;1.93;0.80;;;-5.50;99.90;;;;;;2211001;64;20097;-43
2022/01/12 07:26:04;;;;;;;3.40;1.20;;;-5.50;99.90;;;;;;2207892;64;20175;-42
2022/01/12 07:28:31;;;;;;;3.03;0.93;;;-5.50;99.90;;;;;;2207838;64;20591;-42
2022/01/12 07:30:58;;;;;;;2.77;0.97;;;-5.50;99.90;;;;;;2207982;64;20100;-42
2022/01/12 07:33:25;;;;;;;1.60;0.40;;;-5.40;99.90;;;;;;2207665;64;20103;-41
2022/01/12 07:35:52;;;;;;;0.93;0.43;;;-5.40;99.90;;;;;;2207830;64;20104;-42
2022/01/12 07:38:19;;;;;;;3.10;1.63;;;-5.30;99.90;;;;;;2208239;64;20097;-42
2022/01/12 07:40:46;;;;;;;2.87;1.43;;;-5.20;99.90;;;;;;2208544;64;20249;-43
2022/01/12 07:43:13;;;;;;;1.40;0.67;;;-5.10;99.90;;;;;;2208526;64;20581;-42
2022/01/12 07:45:40;;;;;;;0.70;0.70;;;-5.20;99.90;;;;;;2215908;64;20084;-42
2022/01/12 07:48:07;;;;;;;4.73;2.10;;;-5.20;99.90;;;;;;2217727;64;20178;-41
2022/01/12 07:50:33;;;;;;;8.70;1.90;;;-5.20;99.90;;;;;;2217827;64;20107;-43
2022/01/12 07:53:00;;;;;;;4.50;1.60;;;-5.10;99.90;;;;;;2217923;64;20088;-42
2022/01/12 07:55:27;;;;;;;5.63;1.67;;;-5.00;99.90;;;;;;2217704;64;20464;-41
2022/01/12 07:57:54;;;;;;;4.03;2.43;;;-5.10;99.90;;;;;;2217942;64;20104;-42
2022/01/12 08:00:21;;;;;;;1.53;0.77;;;-4.90;99.90;;;;;;2217787;64;20096;-41
2022/01/12 08:02:51;;;;;;;4.40;1.70;;;-4.90;99.90;;;;;;2217659;64;20118;-41
2022/01/12 08:05:18;;;;;;;2.13;1.17;;;-5.00;99.90;;;;;;2217868;64;20155;-42
2022/01/12 08:07:46;;;;;;;3.70;1.97;;;-5.00;99.90;;;;;;2217697;64;20115;-42
2022/01/12 08:10:14;;;;;;;3.80;1.57;;;-4.90;99.90;;;;;;2218004;64;20548;-40
2022/01/12 08:12:41;;;;;;;5.80;1.40;;;-4.70;99.90;;;;;;2214491;64;20102;-42
2022/01/12 08:15:08;;;;;;;4.07;1.30;;;-4.80;99.90;;;;;;2217804;64;20092;-40
2022/01/12 08:17:35;;;;;;;4.43;1.80;;;-4.80;99.90;;;;;;2217795;64;20084;-41
2022/01/12 08:20:07;;;;;;;3.17;1.90;;;-4.90;99.90;;;;;;2217717;64;20472;-41
2022/01/12 08:22:33;;;;;;;7.27;2.00;;;-4.70;99.90;;;;;;2217798;64;20107;-42
2022/01/12 08:25:02;;;;;;;5.37;2.07;;;-4.70;99.90;;;;;;2213786;64;20084;-42
2022/01/12 08:27:29;;;;;;;3.60;0.60;;;-4.70;99.90;;;;;;2204224;64;20128;-41
2022/01/12 08:30:00;;;;;;;6.37;1.63;;;-4.70;99.90;;;;;;2207706;64;20553;-42
2022/01/12 08:32:28;;;;;;;0.93;0.50;;;-4.80;99.90;;;;;;2201171;64;20260;-42
2022/01/12 08:34:56;;;;;;;1.90;0.77;;;-4.90;99.90;;;;;;2204363;64;20109;-42
2022/01/12 08:37:24;;;;;;;2.00;0.60;;;-5.00;99.90;;;;;;2207766;64;20171;-43
2022/01/12 08:39:51;;;;;;;4.73;1.93;;;-5.10;99.90;;;;;;2207532;64;20094;-41
2022/01/12 08:42:19;;;;;;;4.47;2.03;;;-5.10;99.90;;;;;;2201310;64;20155;-42
2022/01/12 08:44:46;;;;;;;2.70;0.77;;;-5.00;99.90;;;;;;2207724;64;20090;-43
2022/01/12 08:47:20;;;;;;;4.33;0.90;;;-5.10;99.90;;;;;;2207729;64;20133;-42
2022/01/12 08:49:46;;;;;;;5.80;1.47;;;-5.10;99.90;;;;;;2207377;64;20106;-42
2022/01/12 08:52:13;;;;;;;5.13;1.77;;;-5.10;99.90;;;;;;2207843;64;20086;-42
2022/01/12 08:54:40;;;;;;;7.90;1.10;;;-5.10;99.90;;;;;;2207648;64;20090;-41
2022/01/12 08:57:07;;;;;;;2.83;1.30;;;-5.10;99.90;;;;;;2207624;64;20256;-42
2022/01/12 08:59:34;;;;;;;0.60;0.40;;;-5.00;99.90;;;;;;2201234;64;20153;-41
2022/01/12 09:02:02;;;;;;;2.90;0.83;;;-5.00;99.90;;;;;;2201369;64;20145;-42
2022/01/12 09:04:29;;;;;;;0.53;0.40;;;-5.00;99.90;;;;;;2211019;64;20080;-42
2022/01/12 09:06:57;;;;;;;1.80;0.67;;;-5.00;99.90;;;;;;2214007;64;20086;-42
2022/01/12 09:09:28;;;;;;;2.97;1.07;;;-5.10;99.90;;;;;;2213738;64;20088;-41
2022/01/12 09:11:54;;;;;;;3.27;1.30;;;-5.00;99.90;;;;;;2213825;64;20105;-42
2022/01/12 09:14:21;;;;;;;3.20;1.10;;;-5.00;99.90;;;;;;2210469;64;20250;-41
2022/01/12 09:16:55;;;;;;;4.83;1.67;;;-5.00;99.90;;;;;;2213620;64;20089;-41
2022/01/12 09:19:22;;;;;;;4.40;1.80;;;-5.00;99.90;;;;;;2213589;64;20103;-42
2022/01/12 09:21:50;;;;;;;3.77;1.53;;;-4.90;99.90;;;;;;2213789;64;20103;-41
2022/01/12 09:24:17;;;;;;;3.53;1.40;;;-4.80;99.90;;;;;;2213759;64;20096;-41
2022/01/12 09:26:44;;;;;;;3.50;1.30;;;-4.80;99.90;;;;;;2216791;64;20088;-42
2022/01/12 09:29:11;;;;;;;3.87;1.57;;;-4.80;99.90;;;;;;2213665;64;20088;-42
2022/01/12 09:31:37;;;;;;;4.00;1.53;;;-4.70;99.90;;;;;;2213757;64;20076;-42
2022/01/12 09:34:05;;;;;;;5.63;2.60;;;-4.70;99.90;;;;;;2213574;64;20108;-41
2022/01/12 09:36:32;;;;;;;3.03;1.67;;;-4.60;99.90;;;;;;2213738;64;20149;-42
2022/01/12 09:39:00;;;;;;;2.30;1.23;;;-4.50;99.90;;;;;;2213677;64;20472;-42
2022/01/12 09:41:27;;;;;;;3.33;1.97;;;-4.60;99.90;;;;;;2216824;64;20425;-42
2022/01/12 09:43:54;;;;;;;2.73;1.03;;;-4.60;99.90;;;;;;2213737;64;20096;-42
2022/01/12 09:46:26;;;;;;;3.33;1.23;;;-4.70;99.90;;;;;;2213621;64;20088;-42
2022/01/12 09:48:54;;;;;;;2.80;1.07;;;-4.80;99.90;;;;;;2213610;64;20087;-41
2022/01/12 09:51:21;;;;;;;3.70;0.60;;;-4.70;99.90;;;;;;2213727;64;20571;-42
2022/01/12 09:53:49;;;;;;;2.70;1.03;;;-4.80;99.90;;;;;;2213589;64;20108;-43
2022/01/12 09:56:18;;;;;;;5.40;1.90;;;-4.80;99.90;;;;;;2206237;64;20164;-42
2022/01/12 09:58:45;;;;;;;3.40;1.63;;;-4.90;99.90;;;;;;2213845;64;20468;-42
2022/01/12 10:01:12;;;;;;;0.57;0.40;;;-4.80;99.90;;;;;;2210193;64;20118;-41
2022/01/12 10:03:39;;;;;;;4.13;1.87;;;-4.60;99.90;;;;;;2210276;64;20203;-43
2022/01/12 10:06:16;;;;;;;4.50;2.80;;;-4.60;99.90;;;;;;2213569;64;20595;-41
2022/01/12 10:08:43;;;;;;;6.90;1.33;;;-4.60;99.90;;;;;;2213787;64;20088;-42
2022/01/12 10:11:11;;;;;;;0.50;0.40;;;-4.50;99.90;;;;;;2213488;64;20568;-45
2022/01/12 10:13:40;;;;;;;3.10;1.10;;;-4.50;99.90;;;;;;2210265;64;20498;-44
2022/01/12 10:16:11;;;;;;;0.87;0.60;;;-4.70;99.90;;;;;;2213682;64;20100;-43
2022/01/12 10:18:48;;;;;;;2.37;0.93;;;-4.80;99.90;;;;;;2213564;64;20094;-43
2022/01/12 10:21:35;;;;;;;3.35;1.55;;;-4.80;99.90;;;;;;2213752;64;20104;-44
2022/01/12 10:24:05;;;;;;;2.27;1.30;;;-4.70;99.90;;;;;;2216626;64;20088;-44
2022/01/12 10:26:42;;;;;;;1.53;0.40;;;-4.80;99.90;;;;;;2216271;64;20092;-44
2022/01/12 10:29:17;;;;;;;9.63;2.00;;;-4.80;99.90;;;;;;2213631;64;20649;-43
2022/01/12 10:31:51;;;;;;;8.52;2.50;;;-4.70;99.90;;;;;;2213826;64;20080;-42
2022/01/12 10:34:22;;;;;;;3.07;1.30;;;-4.70;99.90;;;;;;2216626;64;20085;-43
2022/01/12 10:36:49;;;;;;;5.37;1.67;;;-4.80;99.90;;;;;;2216758;64;20595;-42
2022/01/12 10:39:16;;;;;;;6.90;3.50;;;-4.80;99.90;;;;;;2216614;64;20135;-42
2022/01/12 10:42:04;;;;;;;5.60;2.60;;;-4.90;99.90;;;;;;2213474;64;20092;-42
2022/01/12 10:44:36;;;;;;;8.47;2.17;;;-4.80;99.90;;;;;;2213508;64;20126;-43
2022/01/12 10:47:17;;;;;;;0.70;0.70;;;-4.80;99.90;;;;;;2213255;64;20119;-44
2022/01/12 10:50:05;;;;;;;2.00;1.17;;;-4.90;99.90;;;;;;2213204;64;20114;-44
2022/01/12 10:52:40;;;;;;;3.77;1.73;;;-5.00;99.90;;;;;;2213474;64;20092;-43
2022/01/12 10:55:11;;;;;;;4.82;1.45;;;-5.10;99.90;;;;;;2210442;64;20135;-43
2022/01/12 10:57:42;;;;;;;4.07;2.40;;;-5.10;99.90;;;;;;2213356;64;20107;-44
2022/01/12 11:00:19;;;;;;;6.53;1.50;;;-5.10;99.90;;;;;;2220027;64;20088;-44
2022/01/12 11:02:47;;;;;;;3.90;1.53;;;-5.10;99.90;;;;;;2216647;64;20106;-43
2022/01/12 11:05:15;;;;;;;4.33;1.50;;;-5.00;99.90;;;;;;2213485;64;20092;-44
2022/01/12 11:07:42;;;;;;;6.27;2.77;;;-5.10;99.90;;;;;;2210184;64;20080;-43
2022/01/12 11:10:10;;;;;;;3.40;1.70;;;-5.10;99.90;;;;;;2216255;64;20081;-43
2022/01/12 11:12:38;;;;;;;7.27;1.93;;;-5.10;99.90;;;;;;2213715;64;20092;-43
2022/01/12 11:15:09;;;;;;;4.40;1.67;;;-5.10;99.90;;;;;;2213931;64;20123;-44
2022/01/12 11:17:38;;;;;;;5.53;0.77;;;-5.10;99.90;;;;;;2213985;64;20068;-43
2022/01/12 11:20:18;;;;;;;2.97;1.20;;;-5.00;99.90;;;;;;2214008;64;20322;-43
2022/01/12 11:23:08;;;;;;;2.73;1.03;;;-5.00;99.90;;;;;;2214057;64;20187;-43
2022/01/12 11:25:43;;;;;;;1.03;0.53;;;-4.90;99.90;;;;;;2210865;64;20093;-44
2022/01/12 11:28:14;;;;;;;4.07;1.73;;;-5.00;99.90;;;;;;2217353;64;20153;-43
2022/01/12 11:30:50;;;;;;;1.80;0.63;;;-5.00;99.90;;;;;;2214011;64;20553;-45
2022/01/12 11:33:18;;;;;;;2.97;1.20;;;-4.90;99.90;;;;;;2213858;64;20077;-44
2022/01/12 11:35:50;;;;;;;1.67;0.70;;;-5.00;99.90;;;;;;2213933;64;20089;-44
2022/01/12 11:38:22;;;;;;;4.03;1.43;;;-5.10;99.90;;;;;;2214017;64;20089;-44
2022/01/12 11:40:50;;;;;;;8.20;2.77;;;-5.20;99.90;;;;;;2210818;64;20091;-43
2022/01/12 11:43:21;;;;;;;3.70;1.10;;;-5.10;99.90;;;;;;2213811;64;20097;-43
2022/01/12 11:46:11;;;;;;;4.17;1.43;;;-5.10;99.90;;;;;;2210990;64;20089;-44
2022/01/12 11:48:45;;;;;;;2.87;1.10;;;-5.20;99.90;;;;;;2213156;64;20115;-44
2022/01/12 11:51:12;;;;;;;3.77;1.43;;;-5.20;99.90;;;;;;2215488;64;20101;-43
2022/01/12 11:54:09;;;;;;;1.67;1.07;;;-5.20;99.90;;;;;;2208942;64;20107;-43
2022/01/12 11:56:37;;;;;;;3.17;0.70;;;-5.20;99.90;;;;;;2212423;64;20093;-44
2022/01/12 11:59:11;;;;;;;3.40;1.27;;;-5.20;99.90;;;;;;2209212;64;20077;-44
2022/01/12 12:01:50;;;;;;;0.90;0.57;;;-5.20;99.90;;;;;;2208899;64;20150;-44
2022/01/12 12:04:26;;;;;;;1.70;0.63;;;-5.20;99.90;;;;;;2209101;64;20090;-43
2022/01/12 12:07:13;;;;;;;4.33;1.17;;;-5.20;99.90;;;;;;2208908;64;20402;-43
2022/01/12 12:09:42;;;;;;;2.10;1.10;;;-5.20;99.90;;;;;;2209084;64;20095;-44
2022/01/12 12:12:15;;;;;;;2.80;0.70;;;-5.30;99.90;;;;;;2208974;64;20086;-43
2022/01/12 12:14:44;;;;;;;2.80;1.33;;;-5.20;99.90;;;;;;2205820;64;20097;-44
2022/01/12 12:17:11;;;;;;;3.93;1.57;;;-5.20;99.90;;;;;;2209083;64;20093;-44
2022/01/12 12:19:38;;;;;;;1.70;0.80;;;-5.20;99.90;;;;;;2208882;64;20073;-44
2022/01/12 12:22:29;;;;;;;2.33;0.73;;;-5.20;99.90;;;;;;2212670;64;20182;-44
2022/01/12 12:25:09;;;;;;;6.47;2.00;;;-5.30;99.90;;;;;;2213063;64;20104;-43
2022/01/12 12:27:37;;;;;;;3.60;1.80;;;-5.30;99.90;;;;;;2213055;64;20145;-44
2022/01/12 12:30:08;;;;;;;4.30;1.63;;;-5.30;99.90;;;;;;2213254;64;20549;-44
2022/01/12 12:32:40;;;;;;;7.27;2.57;;;-5.30;99.90;;;;;;2216490;64;20580;-44
2022/01/12 12:35:12;;;;;;;8.30;2.50;;;-5.40;99.90;;;;;;2216455;64;20545;-44
2022/01/12 12:37:51;;;;;;;2.93;0.83;;;-5.30;99.90;;;;;;2216268;64;20093;-44
2022/01/12 12:40:25;;;;;;;3.00;1.30;;;-5.40;99.90;;;;;;2213099;64;20549;-45
2022/01/12 12:43:13;;;;;;;0.52;0.40;;;-5.40;99.90;;;;;;2213068;64;20476;-45
2022/01/12 12:45:48;;;;;;;4.30;1.63;;;-5.40;99.90;;;;;;2216555;64;20077;-44
2022/01/12 12:48:17;;;;;;;4.40;2.30;;;-5.40;99.90;;;;;;2208024;64;20093;-44
2022/01/12 12:50:44;;;;;;;9.00;2.30;;;-5.40;99.90;;;;;;2208302;64;20631;-44
2022/01/12 12:53:11;;;;;;;1.93;0.50;;;-5.40;99.90;;;;;;2211448;64;20101;-45
2022/01/12 12:55:44;;;;;;;6.63;1.30;;;-5.40;99.90;;;;;;2211440;64;20096;-45
2022/01/12 12:58:11;;;;;;;6.70;2.77;;;-5.40;99.90;;;;;;2211369;64;20161;-43
2022/01/12 13:00:38;;;;;;;5.93;2.30;;;-5.40;99.90;;;;;;2201693;64;20647;-45
2022/01/12 13:03:05;;;;;;;7.43;2.67;;;-5.40;99.90;;;;;;2208222;64;20109;-44
2022/01/12 13:05:34;;;;;;;8.17;3.57;;;-5.30;99.90;;;;;;2208124;64;20094;-44
2022/01/12 13:08:01;;;;;;;3.87;2.00;;;-5.30;99.90;;;;;;2211242;64;20096;-44
2022/01/12 13:10:30;;;;;;;5.83;1.80;;;-5.50;99.90;;;;;;2205084;64;20461;-45
2022/01/12 13:12:59;;;;;;;2.60;1.27;;;-5.40;99.90;;;;;;2211197;64;20647;-44
2022/01/12 13:15:27;;;;;;;10.50;3.10;;;-5.50;99.90;;;;;;2211249;64;20121;-44
2022/01/12 13:18:04;;;;;;;4.73;2.23;;;-5.40;99.90;;;;;;2204736;64;20097;-44
2022/01/12 13:23:23;;;;;;;1.47;0.53;;;-5.40;99.90;;;;;;2207961;64;20453;-43
2022/01/12 13:25:54;;;;;;;4.43;1.97;;;-5.50;99.90;;;;;;2216317;64;20109;-44
2022/01/12 13:28:21;;;;;;;4.27;1.97;;;-5.50;99.90;;;;;;2213126;64;20147;-43
2022/01/12 13:30:49;;;;;;;6.20;1.83;;;-5.50;99.90;;;;;;2209822;64;20101;-44
2022/01/12 13:33:33;;;;;;;7.50;2.43;;;-5.50;99.90;;;;;;2216163;64;20440;-44
2022/01/12 13:36:20;;;;;;;10.40;2.50;;;-5.50;99.90;;;;;;2213002;64;20104;-44
2022/01/12 13:38:49;;;;;;;10.47;3.57;;;-5.50;99.90;;;;;;2216067;64;20092;-44
2022/01/12 13:41:17;;;;;;;6.43;2.67;;;-5.40;99.90;;;;;;2219340;64;20598;-44
2022/01/12 13:43:47;;;;;;;9.13;2.73;;;-5.40;99.90;;;;;;2212799;64;20107;-45
2022/01/12 13:46:17;;;;;;;9.10;2.57;;;-5.50;99.90;;;;;;2212970;64;20107;-45
2022/01/12 13:49:20;;;;;;;11.63;3.70;;;-5.50;99.90;;;;;;2212868;64;20596;-43
2022/01/12 13:52:01;;;;;;;10.43;2.20;;;-5.50;99.90;;;;;;2216380;64;20100;-44
2022/01/12 13:54:30;;;;;;;8.93;4.40;;;-5.50;99.90;;;;;;2212827;64;20089;-45
2022/01/12 13:56:58;;;;;;;5.67;2.10;;;-5.50;99.90;;;;;;2216139;64;20073;-44
2022/01/12 13:59:27;;;;;;;2.13;0.73;;;-5.60;99.90;;;;;;2219273;64;20196;-44
2022/01/12 14:01:54;;;;;;;6.67;2.63;;;-5.60;99.90;;;;;;2219551;64;20107;-45
2022/01/12 14:04:34;;;;;;;5.43;2.77;;;-5.50;99.90;;;;;;2216089;64;20560;-44
2022/01/12 14:07:04;;;;;;;7.33;1.87;;;-5.50;99.90;;;;;;2213044;64;20081;-45
2022/01/12 14:12:14;;;;;;;5.50;2.13;;;-5.60;99.90;;;;;;2213017;64;20089;-44